Michelle Sloan — WDH8832 — position and weather

sailwx.info

Track history (hours):
 
Tides and Currents Weather Stations Pressure Air Temp Water Temp Dewpoint Dewpoint Depression Visibility Wind Speed Wind Dir Waves Ship Positions

Michelle Sloan

Owner: Harley Marine Services, Inc., Seattle, WA. More information available from US FCC via Universal Licensing System and Coast Guard Vessel Documentation Center.

Last reported at 2018-Jan-23 11:15 UTC. Time now 2018-Jan-23 12:20 UTC.
Position N 33°44' W 118°16'.

Length 24 m; draft 4.9 m.

Type: Towing. MMSI: 367661930.

Date/timePositionNaut miles runAvg speedWind from/ knotsBaromVisibWave heightAir tempDewpointWater temp
2018-Jan-23 11:15N 33°44' W 118°16'0 0.0
2018-Jan-23 02:52N 33°43' W 118°16'2 0.5
2018-Jan-22 23:49N 33°45' W 118°16'2 4.6
2018-Jan-22 23:29N 33°43' W 118°16'2 0.6
2018-Jan-22 20:03N 33°45' W 118°16'1 1.7
2018-Jan-22 19:46N 33°45' W 118°16'1 4.6
2018-Jan-22 19:30N 33°44' W 118°16'1 0.4
2018-Jan-22 17:28N 33°43' W 118°16'3 0.2
2018-Jan-22 01:11N 33°45' W 118°12'  
2018-Jan-19 01:10N 33°44' W 118°16'0 0.0
2018-Jan-19 00:36N 33°44' W 118°16'2 1.7
2018-Jan-18 23:38N 33°45' W 118°16'1 5.0
2018-Jan-18 23:24N 33°45' W 118°17'3 6.3
2018-Jan-18 23:00N 33°42' W 118°15'2 2.9
2018-Jan-18 22:28N 33°44' W 118°16'0 0.0
2018-Jan-18 21:25N 33°44' W 118°16'0 0.0
2018-Jan-18 20:59N 33°44' W 118°16'1 0.4
2018-Jan-18 19:14N 33°43' W 118°16'2 0.5
2018-Jan-18 15:40N 33°45' W 118°17'0 0.0
2018-Jan-18 15:29N 33°45' W 118°17'2 0.9
2018-Jan-18 13:40N 33°43' W 118°16'0 2.9
2018-Jan-18 13:30N 33°44' W 118°15'0 0.0
2018-Jan-18 13:00N 33°44' W 118°15'3 0.6
2018-Jan-18 08:15N 33°45' W 118°12'0 0.0
2018-Jan-18 07:58N 33°45' W 118°12'3 2.3
2018-Jan-18 06:39N 33°44' W 118°16'0 0.0
2018-Jan-18 06:22N 33°44' W 118°16'0 0.0
2018-Jan-18 05:58N 33°44' W 118°16'0 0.0
2018-Jan-18 04:43N 33°44' W 118°16'  
Track history (hours):
 
Tides and Currents Weather Stations Pressure Air Temp Water Temp Dewpoint Dewpoint Depression Visibility Wind Speed Wind Dir Waves Ship Positions

Michelle Sloan

Owner: Harley Marine Services, Inc., Seattle, WA. More information available from US FCC via Universal Licensing System and Coast Guard Vessel Documentation Center.

Last reported at 2018-Jan-23 11:15 UTC. Time now 2018-Jan-23 12:20 UTC.
Position N 33°44' W 118°16'.

Length 24 m; draft 4.9 m.

Type: Towing. MMSI: 367661930.

Date/timePositionNaut miles runAvg speedWind from/ knotsBaromVisibWave heightAir tempDewpointWater temp
2018-Jan-23 11:15N 33°44' W 118°16'0 0.0
2018-Jan-23 02:52N 33°43' W 118°16'2 0.5
2018-Jan-22 23:49N 33°45' W 118°16'2 4.6
2018-Jan-22 23:29N 33°43' W 118°16'2 0.6
2018-Jan-22 20:03N 33°45' W 118°16'1 1.7
2018-Jan-22 19:46N 33°45' W 118°16'1 4.6
2018-Jan-22 19:30N 33°44' W 118°16'1 0.4
2018-Jan-22 17:28N 33°43' W 118°16'3 0.2
2018-Jan-22 01:11N 33°45' W 118°12'  
2018-Jan-19 01:10N 33°44' W 118°16'0 0.0
2018-Jan-19 00:36N 33°44' W 118°16'2 1.7
2018-Jan-18 23:38N 33°45' W 118°16'1 5.0
2018-Jan-18 23:24N 33°45' W 118°17'3 6.3
2018-Jan-18 23:00N 33°42' W 118°15'2 2.9
2018-Jan-18 22:28N 33°44' W 118°16'0 0.0
2018-Jan-18 21:25N 33°44' W 118°16'0 0.0
2018-Jan-18 20:59N 33°44' W 118°16'1 0.4
2018-Jan-18 19:14N 33°43' W 118°16'2 0.5
2018-Jan-18 15:40N 33°45' W 118°17'0 0.0
2018-Jan-18 15:29N 33°45' W 118°17'2 0.9
2018-Jan-18 13:40N 33°43' W 118°16'0 2.9
2018-Jan-18 13:30N 33°44' W 118°15'0 0.0
2018-Jan-18 13:00N 33°44' W 118°15'3 0.6
2018-Jan-18 08:15N 33°45' W 118°12'0 0.0
2018-Jan-18 07:58N 33°45' W 118°12'3 2.3
2018-Jan-18 06:39N 33°44' W 118°16'0 0.0
2018-Jan-18 06:22N 33°44' W 118°16'0 0.0
2018-Jan-18 05:58N 33°44' W 118°16'0 0.0
2018-Jan-18 04:43N 33°44' W 118°16'  

Dump ship's entire track history